createdAt,value
2023-04-15T00:02:56.303Z,99202.91
2023-04-15T00:05:59.823Z,99206.88
2023-04-15T00:09:02.410Z,99207.97
2023-04-15T00:12:05.704Z,99218.97
2023-04-15T00:15:09.200Z,99212.16
2023-04-15T00:18:11.655Z,99214.44
2023-04-15T00:21:13.823Z,99213.03
2023-04-15T00:24:16.483Z,99210.94
2023-04-15T00:27:18.632Z,99210.66
2023-04-15T00:30:21.239Z,99209.69
2023-04-15T00:33:23.793Z,99212.16
2023-04-15T00:36:26.364Z,99203.47
2023-04-15T00:39:28.679Z,99202.50
2023-04-15T00:42:31.378Z,99207.75
2023-04-15T00:45:34.207Z,99204.94
2023-04-15T00:48:37.263Z,99207.81
2023-04-15T00:51:39.488Z,99204.81
2023-04-15T00:54:42.768Z,99208.78
2023-04-15T00:57:45.019Z,99198.91
2023-04-15T01:00:47.880Z,99197.00
2023-04-15T01:03:51.212Z,99192.91
2023-04-15T01:06:53.889Z,99197.38
2023-04-15T01:09:56.847Z,99195.00
2023-04-15T01:12:59.285Z,99197.94
2023-04-15T01:16:03.066Z,99187.56
2023-04-15T01:19:10.766Z,99195.00
2023-04-15T01:22:13.052Z,99184.87
2023-04-15T01:25:19.870Z,99191.00
2023-04-15T01:28:22.248Z,99197.00
2023-04-15T01:31:24.788Z,99193.34
2023-04-15T01:34:27.033Z,99198.25
2023-04-15T01:37:30.045Z,99198.44
2023-04-15T01:40:32.414Z,99196.13
2023-04-15T01:43:37.057Z,99202.16
2023-04-15T01:46:39.276Z,99198.03
2023-04-15T01:49:41.934Z,99204.16
2023-04-15T01:52:44.059Z,99198.66
2023-04-15T01:55:46.852Z,99198.34
2023-04-15T01:58:50.359Z,99197.72
2023-04-15T02:01:52.844Z,99208.16
2023-04-15T02:04:55.692Z,99207.53
2023-04-15T02:07:57.967Z,99211.50
2023-04-15T02:11:01.253Z,99204.72
2023-04-15T02:14:07.092Z,99207.69
2023-04-15T02:17:09.558Z,99200.59
2023-04-15T02:20:12.106Z,99211.47
2023-04-15T02:23:14.618Z,99221.09
2023-04-15T02:26:19.456Z,99214.16
2023-04-15T02:29:23.483Z,99209.56
2023-04-15T02:32:25.850Z,99211.16
2023-04-15T02:35:29.901Z,99216.84
2023-04-15T02:38:32.633Z,99210.34
2023-04-15T02:41:35.535Z,99223.00
2023-04-15T02:44:38.553Z,99224.44
2023-04-15T02:47:41.657Z,99218.94
2023-04-15T02:50:43.999Z,99215.94
2023-04-15T02:53:48.572Z,99210.91
2023-04-15T02:56:51.007Z,99208.06
2023-04-15T02:59:53.460Z,99212.16
2023-04-15T03:03:02.135Z,99207.44
2023-04-15T03:06:04.852Z,99204.28
2023-04-15T03:09:07.181Z,99208.69
2023-04-15T03:12:10.228Z,99213.59
2023-04-15T03:15:12.647Z,99215.81
2023-04-15T03:18:16.675Z,99209.53
2023-04-15T03:21:20.031Z,99208.56
2023-04-15T03:24:24.696Z,99208.06
2023-04-15T03:27:26.962Z,99203.66
2023-04-15T03:30:30.192Z,99204.44
2023-04-15T03:33:32.362Z,99215.50
2023-04-15T03:36:34.871Z,99210.44
2023-04-15T03:39:37.045Z,99202.25
2023-04-15T03:42:39.416Z,99197.03
2023-04-15T03:45:41.613Z,99206.84
2023-04-15T03:48:44.160Z,99203.84
2023-04-15T03:51:46.636Z,99209.34
2023-04-15T03:54:49.032Z,99203.84
2023-04-15T03:57:51.267Z,99204.78
2023-04-15T04:00:54.854Z,99197.66
2023-04-15T04:03:57.484Z,99202.69
2023-04-15T04:06:59.747Z,99200.16
2023-04-15T04:10:03.790Z,99202.41
2023-04-15T04:13:05.953Z,99203.19
2023-04-15T04:16:08.551Z,99209.69
2023-04-15T04:19:10.772Z,99206.66
2023-04-15T04:22:13.199Z,99206.53
2023-04-15T04:25:15.367Z,99202.44
2023-04-15T04:28:17.824Z,99204.31
2023-04-15T04:31:20.117Z,99206.09
2023-04-15T04:34:22.655Z,99206.41
2023-04-15T04:37:25.028Z,99206.88
2023-04-15T04:40:27.484Z,99207.50
2023-04-15T04:43:29.603Z,99205.16
2023-04-15T04:46:32.034Z,99205.16
2023-04-15T04:49:34.333Z,99213.38
2023-04-15T04:52:36.963Z,99211.97
2023-04-15T04:55:39.072Z,99216.87
2023-04-15T04:58:41.666Z,99209.28
2023-04-15T05:01:44.031Z,99214.22
2023-04-15T05:04:46.470Z,99212.16
2023-04-15T05:07:50.542Z,99209.19
2023-04-15T05:10:53.221Z,99209.97
2023-04-15T05:13:55.684Z,99213.00
2023-04-15T05:16:58.400Z,99217.25
2023-04-15T05:20:00.904Z,99213.63
2023-04-15T05:23:03.609Z,99219.00
2023-04-15T05:26:05.836Z,99215.53
2023-04-15T05:29:08.266Z,99218.72
2023-04-15T05:32:10.865Z,99219.00
2023-04-15T05:35:13.309Z,99224.56
2023-04-15T05:38:15.543Z,99220.75
2023-04-15T05:41:19.818Z,99229.78
2023-04-15T05:44:22.187Z,99231.69
2023-04-15T05:47:24.649Z,99232.94
2023-04-15T05:50:26.946Z,99235.78
2023-04-15T05:53:29.348Z,99231.97
2023-04-15T05:56:31.700Z,99243.06
2023-04-15T05:59:34.121Z,99231.19
2023-04-15T06:02:36.532Z,99240.38
2023-04-15T06:05:39.050Z,99241.31
2023-04-15T06:08:41.447Z,99249.53
2023-04-15T06:11:43.900Z,99256.34
2023-04-15T06:14:46.060Z,99251.16
2023-04-15T06:17:48.639Z,99253.84
2023-04-15T06:20:51.672Z,99262.34
2023-04-15T06:23:54.105Z,99252.38
2023-04-15T06:26:56.237Z,99249.22
2023-04-15T06:29:58.904Z,99248.72
2023-04-15T06:33:01.113Z,99256.47
2023-04-15T06:36:03.607Z,99260.41
2023-04-15T06:39:05.724Z,99256.28
2023-04-15T06:42:08.368Z,99262.44
2023-04-15T06:45:11.120Z,99261.16
2023-04-15T06:48:13.640Z,99269.41
2023-04-15T06:51:16.800Z,99270.06
2023-04-15T06:54:19.235Z,99267.97
2023-04-15T06:57:21.412Z,99269.06
2023-04-15T07:00:23.842Z,99273.97
2023-04-15T07:03:26.112Z,99272.84
2023-04-15T07:06:28.557Z,99275.31
2023-04-15T07:09:31.203Z,99263.34
2023-04-15T07:12:33.654Z,99265.66
2023-04-15T07:15:35.933Z,99269.19
2023-04-15T07:18:38.493Z,99278.78
2023-04-15T07:21:41.959Z,99278.44
2023-04-15T07:24:44.520Z,99273.28
2023-04-15T07:27:46.643Z,99276.06
2023-04-15T07:30:49.121Z,99278.09
2023-04-15T07:33:51.297Z,99278.34
2023-04-15T07:36:53.724Z,99287.50
2023-04-15T07:39:56.035Z,99276.53
2023-04-15T07:42:58.634Z,99275.31
2023-04-15T07:46:00.785Z,99282.28
2023-04-15T07:49:03.333Z,99276.50
2023-04-15T07:52:05.991Z,99281.66
2023-04-15T07:55:09.504Z,99281.41
2023-04-15T07:58:11.732Z,99273.94
2023-04-15T08:01:14.225Z,99273.41
2023-04-15T08:04:17.043Z,99279.72
2023-04-15T08:07:19.376Z,99282.63
2023-04-15T08:10:22.337Z,99282.97
2023-04-15T08:13:24.653Z,99282.78
2023-04-15T08:16:28.046Z,99289.00
2023-04-15T08:19:30.871Z,99291.84
2023-04-15T08:22:33.356Z,99292.50
2023-04-15T08:25:35.480Z,99293.06
2023-04-15T08:28:39.904Z,99299.44
2023-04-15T08:31:42.380Z,99302.44
2023-04-15T08:34:44.802Z,99304.91
2023-04-15T08:37:46.912Z,99312.41
2023-04-15T08:40:49.800Z,99307.63
2023-04-15T08:44:12.688Z,99313.72
2023-04-15T08:47:20.861Z,99307.97
2023-04-15T08:50:26.308Z,99308.31
2023-04-15T08:53:30.537Z,99318.44
2023-04-15T08:56:33.261Z,99311.81
2023-04-15T08:59:35.803Z,99309.88
2023-04-15T09:02:39.281Z,99311.59
2023-04-15T09:05:42.282Z,99317.34
2023-04-15T09:08:44.892Z,99314.94
2023-04-15T09:11:47.402Z,99319.47
2023-04-15T09:14:49.928Z,99319.38
2023-04-15T09:17:52.439Z,99310.22
2023-04-15T09:20:54.860Z,99318.22
2023-04-15T09:23:59.814Z,99318.44
2023-04-15T09:27:02.520Z,99328.03
2023-04-15T09:30:08.896Z,99329.50
2023-04-15T09:33:14.599Z,99323.75
2023-04-15T09:36:17.041Z,99329.50
2023-04-15T09:39:19.369Z,99324.31
2023-04-15T09:42:24.606Z,99322.50
2023-04-15T09:45:29.542Z,99327.25
2023-04-15T09:48:32.321Z,99317.78
2023-04-15T09:51:38.173Z,99326.88
2023-04-15T09:54:40.563Z,99322.50
2023-04-15T09:57:44.264Z,99335.94
2023-04-15T10:00:48.885Z,99334.25
2023-04-15T10:03:52.465Z,99332.88
2023-04-15T10:06:54.667Z,99329.38
2023-04-15T10:09:59.886Z,99335.72
2023-04-15T10:13:02.663Z,99334.56
2023-04-15T10:16:32.621Z,99339.84
2023-04-15T10:19:37.420Z,99346.16
2023-04-15T10:22:41.104Z,99343.44
2023-04-15T10:25:43.608Z,99342.28
2023-04-15T10:28:49.632Z,99348.72
2023-04-15T10:31:52.542Z,99350.66
2023-04-15T10:34:55.688Z,99349.09
2023-04-15T10:37:58.015Z,99346.19
2023-04-15T10:41:14.231Z,99346.63
2023-04-15T10:44:16.692Z,99350.25
2023-04-15T10:47:21.742Z,99358.88
2023-04-15T10:50:28.153Z,99371.56
2023-04-15T10:53:31.880Z,99360.87
2023-04-15T10:56:34.023Z,99365.28
2023-04-15T10:59:59.966Z,99367.28
2023-04-15T11:03:09.988Z,99367.19
2023-04-15T11:06:12.642Z,99371.16
2023-04-15T11:09:34.513Z,99375.09
2023-04-15T11:12:37.363Z,99373.63
2023-04-15T11:15:41.860Z,99375.19
2023-04-15T11:18:55.558Z,99374.75
2023-04-15T11:21:57.749Z,99372.50
2023-04-15T11:25:00.162Z,99384.28
2023-04-15T11:28:02.598Z,99372.78
2023-04-15T11:31:11.337Z,99367.94
2023-04-15T11:34:22.914Z,99370.75
2023-04-15T11:37:29.645Z,99367.34
2023-04-15T11:40:33.472Z,99372.12
2023-04-15T11:43:35.991Z,99374.72
2023-04-15T11:46:38.098Z,99375.06
2023-04-15T11:49:41.630Z,99377.78
2023-04-15T11:52:58.966Z,99367.72
2023-04-15T11:56:01.840Z,99375.06
2023-04-15T11:59:04.451Z,99378.56
2023-04-15T12:02:14.077Z,99379.12
2023-04-15T12:05:16.841Z,99378.34
2023-04-15T12:08:19.119Z,99375.06
2023-04-15T12:11:27.346Z,99385.91
2023-04-15T12:14:31.431Z,99379.22
2023-04-15T12:17:51.527Z,99388.03
2023-04-15T12:20:54.689Z,99387.69
2023-04-15T12:23:58.122Z,99386.91
2023-04-15T12:27:05.575Z,99380.81
2023-04-15T12:30:08.966Z,99383.41
2023-04-15T12:33:12.029Z,99379.56
2023-04-15T12:36:14.507Z,99384.53
2023-04-15T12:39:16.696Z,99388.03
2023-04-15T12:42:19.444Z,99384.97
2023-04-15T12:45:22.140Z,99388.12
2023-04-15T12:48:24.676Z,99389.63
2023-04-15T12:51:27.418Z,99394.22
2023-04-15T12:54:31.410Z,99396.59
2023-04-15T12:57:33.635Z,99392.88
2023-04-15T13:00:36.066Z,99404.28
2023-04-15T13:03:38.707Z,99398.53
2023-04-15T13:06:41.429Z,99398.97
2023-04-15T13:09:44.026Z,99403.94
2023-04-15T13:12:47.015Z,99397.75
2023-04-15T13:15:49.459Z,99403.28
2023-04-15T13:18:51.976Z,99406.78
2023-04-15T13:21:54.224Z,99402.81
2023-04-15T13:24:56.686Z,99404.16
2023-04-15T13:27:58.976Z,99405.97
2023-04-15T13:31:01.497Z,99406.41
2023-04-15T13:34:03.999Z,99410.25
2023-04-15T13:37:08.193Z,99409.25
2023-04-15T13:40:10.875Z,99413.66
2023-04-15T13:43:13.324Z,99414.66
2023-04-15T13:46:15.581Z,99416.25
2023-04-15T13:49:18.198Z,99419.06
2023-04-15T13:52:20.342Z,99415.56
2023-04-15T13:55:25.282Z,99417.25
2023-04-15T13:58:28.315Z,99416.47
2023-04-15T14:01:31.130Z,99421.09
2023-04-15T14:04:33.903Z,99426.41
2023-04-15T14:07:36.576Z,99425.16
2023-04-15T14:10:39.100Z,99428.97
2023-04-15T14:13:41.291Z,99427.31
2023-04-15T14:16:44.025Z,99428.56
2023-04-15T14:19:46.288Z,99435.31
2023-04-15T14:22:48.739Z,99439.50
2023-04-15T14:25:51.993Z,99439.81
2023-04-15T14:28:54.515Z,99433.84
2023-04-15T14:32:11.483Z,99451.87
2023-04-15T14:35:15.194Z,99443.41
2023-04-15T14:38:17.438Z,99450.41
2023-04-15T14:41:19.985Z,99441.16
2023-04-15T14:44:22.432Z,99445.56
2023-04-15T14:47:24.865Z,99457.50
2023-04-15T14:50:27.155Z,99457.28
2023-04-15T14:53:29.624Z,99458.19
2023-04-15T14:56:31.923Z,99457.16
2023-04-15T14:59:34.425Z,99450.53
2023-04-15T15:02:39.654Z,99454.56
2023-04-15T15:05:45.180Z,99453.34
2023-04-15T15:08:47.389Z,99461.47
2023-04-15T15:11:49.964Z,99461.91
2023-04-15T15:14:52.175Z,99467.75
2023-04-15T15:17:54.708Z,99471.16
2023-04-15T15:20:57.166Z,99473.72
2023-04-15T15:23:59.566Z,99473.81
2023-04-15T15:27:02.874Z,99478.56
2023-04-15T15:30:07.120Z,99482.28
2023-04-15T15:33:09.385Z,99486.22
2023-04-15T15:36:12.114Z,99486.22
2023-04-15T15:39:14.352Z,99490.50
2023-04-15T15:42:18.617Z,99496.03
2023-04-15T15:45:20.883Z,99502.91
2023-04-15T15:48:23.951Z,99509.66
2023-04-15T15:51:27.492Z,99521.91
2023-04-15T15:54:29.988Z,99524.75
2023-04-15T15:57:32.283Z,99529.56
2023-04-15T16:00:34.854Z,99527.78
2023-04-15T16:03:37.511Z,99533.81
2023-04-15T16:06:40.672Z,99542.69
2023-04-15T16:09:43.675Z,99539.06
2023-04-15T16:12:45.841Z,99540.38
2023-04-15T16:15:50.247Z,99536.66
2023-04-15T16:18:52.356Z,99538.09
2023-04-15T16:21:54.868Z,99534.47
2023-04-15T16:24:57.140Z,99530.94
2023-04-15T16:28:06.057Z,99528.06
2023-04-15T16:31:13.899Z,99533.94
2023-04-15T16:34:17.460Z,99533.66
2023-04-15T16:37:21.072Z,99540.59
2023-04-15T16:40:23.687Z,99544.44
2023-04-15T16:43:26.184Z,99544.28
2023-04-15T16:46:29.571Z,99561.28
2023-04-15T16:49:31.805Z,99564.94
2023-04-15T16:52:34.385Z,99565.91
2023-04-15T16:55:36.533Z,99578.62
2023-04-15T16:58:39.041Z,99588.13
2023-04-15T17:01:41.401Z,99582.91
2023-04-15T17:04:43.878Z,99590.56
2023-04-15T17:07:46.016Z,99594.06
2023-04-15T17:10:48.625Z,99592.69
2023-04-15T17:13:51.016Z,99597.94
2023-04-15T17:16:53.471Z,99606.69
2023-04-15T17:19:55.700Z,99603.69
2023-04-15T17:22:58.622Z,99610.50
2023-04-15T17:26:00.878Z,99609.41
2023-04-15T17:29:03.777Z,99616.25
2023-04-15T17:32:06.180Z,99614.53
2023-04-15T17:35:09.101Z,99624.22
2023-04-15T17:38:11.259Z,99630.25
2023-04-15T17:41:13.817Z,99627.25
2023-04-15T17:44:15.986Z,99632.78
2023-04-15T17:47:18.426Z,99635.34
2023-04-15T17:50:20.693Z,99635.97
2023-04-15T17:53:23.179Z,99648.03
2023-04-15T17:56:27.004Z,99642.97
2023-04-15T17:59:30.891Z,99650.09
2023-04-15T18:02:36.117Z,99649.91
2023-04-15T18:05:40.842Z,99656.44
2023-04-15T18:08:44.664Z,99655.16
2023-04-15T18:11:48.376Z,99656.75
2023-04-15T18:14:50.510Z,99658.47
2023-04-15T18:17:53.028Z,99666.09
2023-04-15T18:20:55.252Z,99668.81
2023-04-15T18:23:57.682Z,99679.25
2023-04-15T18:26:59.923Z,99683.53
2023-04-15T18:30:02.483Z,99683.69
2023-04-15T18:33:04.885Z,99689.25
2023-04-15T18:36:07.458Z,99690.53
2023-04-15T18:39:09.791Z,99695.75
2023-04-15T18:42:12.291Z,99710.19
2023-04-15T18:45:14.498Z,99718.44
2023-04-15T18:48:17.536Z,99720.31
2023-04-15T18:51:19.747Z,99724.25
2023-04-15T18:54:22.162Z,99731.69
2023-04-15T18:57:34.878Z,99737.03
2023-04-15T19:00:41.603Z,99734.47
2023-04-15T19:03:43.923Z,99741.25
2023-04-15T19:06:49.378Z,99739.97
2023-04-15T19:09:51.601Z,99750.41
2023-04-15T19:12:55.041Z,99747.38
2023-04-15T19:15:57.160Z,99755.19
2023-04-15T19:18:59.666Z,99757.63
2023-04-15T19:22:03.286Z,99766.09
2023-04-15T19:25:06.292Z,99771.50
2023-04-15T19:28:08.481Z,99774.50
2023-04-15T19:31:11.269Z,99771.81
2023-04-15T19:34:13.587Z,99773.22
2023-04-15T19:37:16.180Z,99776.50
2023-04-15T19:40:18.431Z,99786.88
2023-04-15T19:43:20.935Z,99786.38
2023-04-15T19:46:23.458Z,99789.72
2023-04-15T19:49:26.640Z,99787.84
2023-04-15T19:52:29.162Z,99797.00
2023-04-15T19:55:31.966Z,99810.00
2023-04-15T19:58:34.183Z,99800.81
2023-04-15T20:01:36.683Z,99806.56
2023-04-15T20:04:39.549Z,99805.13
2023-04-15T20:07:47.617Z,99808.81
2023-04-15T20:10:50.057Z,99805.03
2023-04-15T20:13:52.212Z,99812.50
2023-04-15T20:16:54.618Z,99814.91
2023-04-15T20:19:56.723Z,99818.19
2023-04-15T20:22:59.157Z,99819.19
2023-04-15T20:26:01.438Z,99811.88
2023-04-15T20:29:04.136Z,99807.62
2023-04-15T20:32:06.761Z,99813.09
2023-04-15T20:35:09.522Z,99806.50
2023-04-15T20:38:11.962Z,99814.91
2023-04-15T20:41:15.454Z,99817.47
2023-04-15T20:44:17.607Z,99819.34
2023-04-15T20:47:20.389Z,99826.16
2023-04-15T20:50:22.552Z,99822.66
2023-04-15T20:53:24.935Z,99823.56
2023-04-15T20:56:27.039Z,99822.97
2023-04-15T20:59:29.935Z,99830.75
2023-04-15T21:02:32.324Z,99831.94
2023-04-15T21:05:34.799Z,99836.75
2023-04-15T21:08:36.949Z,99842.25
2023-04-15T21:11:57.232Z,99846.31
2023-04-15T21:15:01.751Z,99860.19
2023-04-15T21:18:04.258Z,99851.72
2023-04-15T21:21:06.442Z,99863.59
2023-04-15T21:24:08.994Z,99871.87
2023-04-15T21:27:11.118Z,99871.69
2023-04-15T21:30:13.545Z,99869.59
2023-04-15T21:33:16.642Z,99869.19
2023-04-15T21:36:19.136Z,99878.37
2023-04-15T21:39:21.488Z,99890.44
2023-04-15T21:42:23.919Z,99880.88
2023-04-15T21:45:26.361Z,99887.06
2023-04-15T21:48:29.012Z,99887.44
2023-04-15T21:51:31.499Z,99891.53
2023-04-15T21:54:34.296Z,99888.81
2023-04-15T21:57:36.472Z,99891.41
2023-04-15T22:00:40.862Z,99892.72
2023-04-15T22:03:43.856Z,99894.81
2023-04-15T22:06:46.864Z,99895.41
2023-04-15T22:09:50.075Z,99897.81
2023-04-15T22:12:52.252Z,99891.34
2023-04-15T22:15:54.802Z,99905.38
2023-04-15T22:18:57.028Z,99902.81
2023-04-15T22:21:59.673Z,99909.16
2023-04-15T22:25:01.884Z,99901.69
2023-04-15T22:28:07.800Z,99906.28
2023-04-15T22:31:10.106Z,99903.59
2023-04-15T22:34:14.783Z,99900.13
2023-04-15T22:37:16.935Z,99896.91
2023-04-15T22:40:19.361Z,99909.16
2023-04-15T22:43:21.796Z,99904.97
2023-04-15T22:46:24.315Z,99910.66
2023-04-15T22:49:26.935Z,99908.56
2023-04-15T22:52:31.058Z,99919.13
2023-04-15T22:55:33.630Z,99910.97
2023-04-15T22:58:36.098Z,99910.34
2023-04-15T23:01:38.344Z,99915.34
2023-04-15T23:04:41.091Z,99910.97
2023-04-15T23:07:43.388Z,99916.25
2023-04-15T23:10:46.394Z,99910.97
2023-04-15T23:13:50.525Z,99908.28
2023-04-15T23:16:52.993Z,99915.53
2023-04-15T23:19:55.156Z,99909.78
2023-04-15T23:22:57.642Z,99909.16
2023-04-15T23:26:01.311Z,99902.00
2023-04-15T23:29:03.807Z,99910.56
2023-04-15T23:32:06.534Z,99916.41
2023-04-15T23:35:09.446Z,99919.25
2023-04-15T23:38:11.643Z,99931.06
2023-04-15T23:41:14.087Z,99933.97
2023-04-15T23:44:16.318Z,99924.00
2023-04-15T23:47:18.796Z,99925.69
2023-04-15T23:50:21.072Z,99923.22
2023-04-15T23:53:23.533Z,99922.22
2023-04-15T23:56:25.689Z,99928.59
2023-04-15T23:59:28.199Z,99936.75
